sensor_id;sensor_type;location;lat;lon;timestamp;temperature;humidity
11284;DHT22;5698;47.332;11.180;2023-05-10T00:01:07;10.60;99.90
11284;DHT22;5698;47.332;11.180;2023-05-10T00:03:34;10.60;99.90
11284;DHT22;5698;47.332;11.180;2023-05-10T00:06:01;10.50;99.90
11284;DHT22;5698;47.332;11.180;2023-05-10T00:08:28;10.40;99.90
11284;DHT22;5698;47.332;11.180;2023-05-10T00:10:55;10.40;99.90
11284;DHT22;5698;47.332;11.180;2023-05-10T00:13:22;10.30;99.90
11284;DHT22;5698;47.332;11.180;2023-05-10T00:15:49;10.30;99.90
11284;DHT22;5698;47.332;11.180;2023-05-10T00:18:17;10.30;99.90
11284;DHT22;5698;47.332;11.180;2023-05-10T00:20:44;10.20;99.90
11284;DHT22;5698;47.332;11.180;2023-05-10T00:23:11;10.30;99.90
11284;DHT22;5698;47.332;11.180;2023-05-10T00:25:38;10.30;99.90
11284;DHT22;5698;47.332;11.180;2023-05-10T00:28:05;10.30;99.90
11284;DHT22;5698;47.332;11.180;2023-05-10T00:30:32;10.30;99.90
11284;DHT22;5698;47.332;11.180;2023-05-10T00:32:59;10.30;99.90
11284;DHT22;5698;47.332;11.180;2023-05-10T00:35:28;10.20;99.90
11284;DHT22;5698;47.332;11.180;2023-05-10T00:37:55;10.20;99.90
11284;DHT22;5698;47.332;11.180;2023-05-10T00:40:22;10.10;99.90
11284;DHT22;5698;47.332;11.180;2023-05-10T00:42:48;10.10;99.90
11284;DHT22;5698;47.332;11.180;2023-05-10T00:45:16;10.10;99.90
11284;DHT22;5698;47.332;11.180;2023-05-10T00:47:43;10.20;99.90
11284;DHT22;5698;47.332;11.180;2023-05-10T00:50:10;10.20;99.90
11284;DHT22;5698;47.332;11.180;2023-05-10T00:52:38;10.20;99.90
11284;DHT22;5698;47.332;11.180;2023-05-10T00:55:06;10.20;99.90
11284;DHT22;5698;47.332;11.180;2023-05-10T00:57:33;10.10;99.90
11284;DHT22;5698;47.332;11.180;2023-05-10T01:00:02;10.10;99.90
11284;DHT22;5698;47.332;11.180;2023-05-10T01:02:29;10.10;99.90
11284;DHT22;5698;47.332;11.180;2023-05-10T01:04:56;10.10;99.90
11284;DHT22;5698;47.332;11.180;2023-05-10T01:07:23;10.20;99.90
11284;DHT22;5698;47.332;11.180;2023-05-10T01:09:52;10.10;99.90
11284;DHT22;5698;47.332;11.180;2023-05-10T01:12:19;10.00;99.90
11284;DHT22;5698;47.332;11.180;2023-05-10T01:14:46;10.10;99.90
11284;DHT22;5698;47.332;11.180;2023-05-10T01:17:14;10.00;99.90
11284;DHT22;5698;47.332;11.180;2023-05-10T01:19:42;9.90;99.90
11284;DHT22;5698;47.332;11.180;2023-05-10T01:22:23;9.80;99.90
11284;DHT22;5698;47.332;11.180;2023-05-10T01:31:06;9.90;99.90
11284;DHT22;5698;47.332;11.180;2023-05-10T01:33:40;9.90;99.90
11284;DHT22;5698;47.332;11.180;2023-05-10T01:36:16;9.90;99.90
11284;DHT22;5698;47.332;11.180;2023-05-10T01:38:55;9.90;99.90
11284;DHT22;5698;47.332;11.180;2023-05-10T01:41:29;9.80;99.90
11284;DHT22;5698;47.332;11.180;2023-05-10T01:44:02;9.80;99.90
11284;DHT22;5698;47.332;11.180;2023-05-10T01:46:34;9.70;99.90
11284;DHT22;5698;47.332;11.180;2023-05-10T01:49:07;9.60;99.90
11284;DHT22;5698;47.332;11.180;2023-05-10T01:51:39;9.50;99.90
11284;DHT22;5698;47.332;11.180;2023-05-10T01:54:08;9.60;99.90
11284;DHT22;5698;47.332;11.180;2023-05-10T01:56:36;9.60;99.90
11284;DHT22;5698;47.332;11.180;2023-05-10T01:59:15;9.60;99.90
11284;DHT22;5698;47.332;11.180;2023-05-10T02:01:45;9.60;99.90
11284;DHT22;5698;47.332;11.180;2023-05-10T02:04:16;9.60;99.90
11284;DHT22;5698;47.332;11.180;2023-05-10T02:06:45;9.60;99.90
11284;DHT22;5698;47.332;11.180;2023-05-10T02:09:14;9.60;99.90
11284;DHT22;5698;47.332;11.180;2023-05-10T02:11:43;9.60;99.90
11284;DHT22;5698;47.332;11.180;2023-05-10T02:14:11;9.70;99.90
11284;DHT22;5698;47.332;11.180;2023-05-10T02:16:39;9.60;99.90
11284;DHT22;5698;47.332;11.180;2023-05-10T02:19:07;9.60;99.90
11284;DHT22;5698;47.332;11.180;2023-05-10T02:21:38;9.60;99.90
11284;DHT22;5698;47.332;11.180;2023-05-10T02:24:06;9.50;99.90
11284;DHT22;5698;47.332;11.180;2023-05-10T02:26:35;9.60;99.90
11284;DHT22;5698;47.332;11.180;2023-05-10T02:29:03;9.60;99.90
11284;DHT22;5698;47.332;11.180;2023-05-10T02:31:33;9.60;99.90
11284;DHT22;5698;47.332;11.180;2023-05-10T02:34:00;9.60;99.90
11284;DHT22;5698;47.332;11.180;2023-05-10T02:36:28;9.60;99.90
11284;DHT22;5698;47.332;11.180;2023-05-10T02:38:59;9.60;99.90
11284;DHT22;5698;47.332;11.180;2023-05-10T02:41:27;9.40;99.90
11284;DHT22;5698;47.332;11.180;2023-05-10T02:43:59;9.40;99.90
11284;DHT22;5698;47.332;11.180;2023-05-10T02:46:26;9.40;99.90
11284;DHT22;5698;47.332;11.180;2023-05-10T02:48:53;9.40;99.90
11284;DHT22;5698;47.332;11.180;2023-05-10T02:51:23;9.40;99.90
11284;DHT22;5698;47.332;11.180;2023-05-10T02:53:52;9.40;99.90
11284;DHT22;5698;47.332;11.180;2023-05-10T02:56:31;9.40;99.90
11284;DHT22;5698;47.332;11.180;2023-05-10T02:58:58;9.20;99.90
11284;DHT22;5698;47.332;11.180;2023-05-10T03:01:25;9.20;99.90
11284;DHT22;5698;47.332;11.180;2023-05-10T03:03:52;9.00;99.90
11284;DHT22;5698;47.332;11.180;2023-05-10T03:06:19;8.90;99.90
11284;DHT22;5698;47.332;11.180;2023-05-10T03:08:46;9.00;99.90
11284;DHT22;5698;47.332;11.180;2023-05-10T03:11:32;9.00;99.90
11284;DHT22;5698;47.332;11.180;2023-05-10T03:14:08;9.00;99.90
11284;DHT22;5698;47.332;11.180;2023-05-10T03:16:42;9.00;99.90
11284;DHT22;5698;47.332;11.180;2023-05-10T03:19:16;9.00;99.90
11284;DHT22;5698;47.332;11.180;2023-05-10T03:21:49;9.10;99.90
11284;DHT22;5698;47.332;11.180;2023-05-10T03:24:20;9.10;99.90
11284;DHT22;5698;47.332;11.180;2023-05-10T03:26:49;9.20;99.90
11284;DHT22;5698;47.332;11.180;2023-05-10T03:29:17;9.20;99.90
11284;DHT22;5698;47.332;11.180;2023-05-10T03:31:45;9.20;99.90
11284;DHT22;5698;47.332;11.180;2023-05-10T03:34:12;9.20;99.90
11284;DHT22;5698;47.332;11.180;2023-05-10T03:36:38;9.20;99.90
11284;DHT22;5698;47.332;11.180;2023-05-10T03:39:05;9.20;99.90
11284;DHT22;5698;47.332;11.180;2023-05-10T03:41:32;9.20;99.90
11284;DHT22;5698;47.332;11.180;2023-05-10T03:44:01;9.20;99.90
11284;DHT22;5698;47.332;11.180;2023-05-10T03:46:27;9.20;99.90
11284;DHT22;5698;47.332;11.180;2023-05-10T03:48:54;9.20;99.90
11284;DHT22;5698;47.332;11.180;2023-05-10T03:51:21;9.20;99.90
11284;DHT22;5698;47.332;11.180;2023-05-10T03:53:49;9.10;99.90
11284;DHT22;5698;47.332;11.180;2023-05-10T03:56:16;9.00;99.90
11284;DHT22;5698;47.332;11.180;2023-05-10T03:58:43;9.00;99.90
11284;DHT22;5698;47.332;11.180;2023-05-10T04:01:11;9.10;99.90
11284;DHT22;5698;47.332;11.180;2023-05-10T04:03:38;9.10;99.90
11284;DHT22;5698;47.332;11.180;2023-05-10T04:06:06;9.20;99.90
11284;DHT22;5698;47.332;11.180;2023-05-10T04:08:34;9.20;99.90
11284;DHT22;5698;47.332;11.180;2023-05-10T04:11:08;9.20;99.90
11284;DHT22;5698;47.332;11.180;2023-05-10T04:13:35;9.20;99.90
11284;DHT22;5698;47.332;11.180;2023-05-10T04:16:02;9.20;99.90
11284;DHT22;5698;47.332;11.180;2023-05-10T04:18:31;9.20;99.90
11284;DHT22;5698;47.332;11.180;2023-05-10T04:20:58;9.10;99.90
11284;DHT22;5698;47.332;11.180;2023-05-10T04:23:25;9.20;99.90
11284;DHT22;5698;47.332;11.180;2023-05-10T04:25:54;9.20;99.90
11284;DHT22;5698;47.332;11.180;2023-05-10T04:28:25;9.20;99.90
11284;DHT22;5698;47.332;11.180;2023-05-10T04:30:52;9.00;99.90
11284;DHT22;5698;47.332;11.180;2023-05-10T04:33:19;9.00;99.90
11284;DHT22;5698;47.332;11.180;2023-05-10T04:35:47;8.90;99.90
11284;DHT22;5698;47.332;11.180;2023-05-10T04:38:14;8.90;99.90
11284;DHT22;5698;47.332;11.180;2023-05-10T04:40:41;8.90;99.90
11284;DHT22;5698;47.332;11.180;2023-05-10T04:43:08;8.90;99.90
11284;DHT22;5698;47.332;11.180;2023-05-10T04:45:35;9.00;99.90
11284;DHT22;5698;47.332;11.180;2023-05-10T04:48:02;9.00;99.90
11284;DHT22;5698;47.332;11.180;2023-05-10T04:50:29;9.10;99.90
11284;DHT22;5698;47.332;11.180;2023-05-10T04:52:57;9.20;99.90
11284;DHT22;5698;47.332;11.180;2023-05-10T04:55:24;9.20;99.90
11284;DHT22;5698;47.332;11.180;2023-05-10T04:57:52;9.30;99.90
11284;DHT22;5698;47.332;11.180;2023-05-10T05:00:20;9.30;99.90
11284;DHT22;5698;47.332;11.180;2023-05-10T05:02:47;9.30;99.90
11284;DHT22;5698;47.332;11.180;2023-05-10T05:05:15;9.30;99.90
11284;DHT22;5698;47.332;11.180;2023-05-10T05:07:41;9.40;99.90
11284;DHT22;5698;47.332;11.180;2023-05-10T05:10:10;9.40;99.90
11284;DHT22;5698;47.332;11.180;2023-05-10T05:12:37;9.40;99.90
11284;DHT22;5698;47.332;11.180;2023-05-10T05:15:04;9.40;99.90
11284;DHT22;5698;47.332;11.180;2023-05-10T05:17:31;9.50;99.90
11284;DHT22;5698;47.332;11.180;2023-05-10T05:19:58;9.50;99.90
11284;DHT22;5698;47.332;11.180;2023-05-10T05:22:25;9.60;99.90
11284;DHT22;5698;47.332;11.180;2023-05-10T05:24:53;9.50;99.90
11284;DHT22;5698;47.332;11.180;2023-05-10T05:27:22;9.50;99.90
11284;DHT22;5698;47.332;11.180;2023-05-10T05:29:52;9.40;99.90
11284;DHT22;5698;47.332;11.180;2023-05-10T05:32:19;9.50;99.90
11284;DHT22;5698;47.332;11.180;2023-05-10T05:34:47;9.50;99.90
11284;DHT22;5698;47.332;11.180;2023-05-10T05:37:14;9.50;99.90
11284;DHT22;5698;47.332;11.180;2023-05-10T05:39:41;9.50;99.90
11284;DHT22;5698;47.332;11.180;2023-05-10T05:42:09;9.50;99.90
11284;DHT22;5698;47.332;11.180;2023-05-10T05:44:37;9.50;99.90
11284;DHT22;5698;47.332;11.180;2023-05-10T05:47:05;9.50;99.90
11284;DHT22;5698;47.332;11.180;2023-05-10T05:49:32;9.60;99.90
11284;DHT22;5698;47.332;11.180;2023-05-10T05:51:59;9.50;99.90
11284;DHT22;5698;47.332;11.180;2023-05-10T05:54:27;9.40;99.90
11284;DHT22;5698;47.332;11.180;2023-05-10T05:56:54;9.40;99.90
11284;DHT22;5698;47.332;11.180;2023-05-10T05:59:22;9.20;99.90
11284;DHT22;5698;47.332;11.180;2023-05-10T06:01:51;9.20;99.90
11284;DHT22;5698;47.332;11.180;2023-05-10T06:04:18;9.20;99.90
11284;DHT22;5698;47.332;11.180;2023-05-10T06:06:45;9.20;99.90
11284;DHT22;5698;47.332;11.180;2023-05-10T06:09:12;9.30;99.90
11284;DHT22;5698;47.332;11.180;2023-05-10T06:11:39;9.10;99.90
11284;DHT22;5698;47.332;11.180;2023-05-10T06:14:06;9.10;99.90
11284;DHT22;5698;47.332;11.180;2023-05-10T06:16:33;9.10;99.90
11284;DHT22;5698;47.332;11.180;2023-05-10T06:19:02;9.10;99.90
11284;DHT22;5698;47.332;11.180;2023-05-10T06:21:29;9.20;99.90
11284;DHT22;5698;47.332;11.180;2023-05-10T06:23:56;9.30;99.90
11284;DHT22;5698;47.332;11.180;2023-05-10T06:26:23;9.30;99.90
11284;DHT22;5698;47.332;11.180;2023-05-10T06:28:50;9.30;99.90
11284;DHT22;5698;47.332;11.180;2023-05-10T06:31:17;9.40;99.90
11284;DHT22;5698;47.332;11.180;2023-05-10T06:33:44;9.40;99.90
11284;DHT22;5698;47.332;11.180;2023-05-10T06:36:13;9.40;99.90
11284;DHT22;5698;47.332;11.180;2023-05-10T06:38:40;9.50;99.90
11284;DHT22;5698;47.332;11.180;2023-05-10T06:41:07;9.50;99.90
11284;DHT22;5698;47.332;11.180;2023-05-10T06:43:34;9.50;99.90
11284;DHT22;5698;47.332;11.180;2023-05-10T06:46:02;9.50;99.90
11284;DHT22;5698;47.332;11.180;2023-05-10T06:48:29;9.60;99.90
11284;DHT22;5698;47.332;11.180;2023-05-10T06:50:56;9.60;99.90
11284;DHT22;5698;47.332;11.180;2023-05-10T06:53:24;9.60;99.90
11284;DHT22;5698;47.332;11.180;2023-05-10T06:55:51;9.60;99.90
11284;DHT22;5698;47.332;11.180;2023-05-10T06:58:18;9.60;99.90
11284;DHT22;5698;47.332;11.180;2023-05-10T07:00:45;9.60;99.90
11284;DHT22;5698;47.332;11.180;2023-05-10T07:03:12;9.60;99.90
11284;DHT22;5698;47.332;11.180;2023-05-10T07:05:39;9.70;99.90
11284;DHT22;5698;47.332;11.180;2023-05-10T07:08:06;9.60;99.90
11284;DHT22;5698;47.332;11.180;2023-05-10T07:10:35;9.70;99.90
11284;DHT22;5698;47.332;11.180;2023-05-10T07:13:02;9.70;99.90
11284;DHT22;5698;47.332;11.180;2023-05-10T07:15:29;9.80;99.90
11284;DHT22;5698;47.332;11.180;2023-05-10T07:17:56;9.80;99.90
11284;DHT22;5698;47.332;11.180;2023-05-10T07:20:23;9.80;99.90
11284;DHT22;5698;47.332;11.180;2023-05-10T07:22:49;9.80;99.90
11284;DHT22;5698;47.332;11.180;2023-05-10T07:25:16;9.90;99.90
11284;DHT22;5698;47.332;11.180;2023-05-10T07:27:45;9.90;99.90
11284;DHT22;5698;47.332;11.180;2023-05-10T07:30:14;9.90;99.90
11284;DHT22;5698;47.332;11.180;2023-05-10T07:32:41;9.90;99.90
11284;DHT22;5698;47.332;11.180;2023-05-10T07:35:08;9.80;99.90
11284;DHT22;5698;47.332;11.180;2023-05-10T07:37:35;9.80;99.90
11284;DHT22;5698;47.332;11.180;2023-05-10T07:40:02;9.80;99.90
11284;DHT22;5698;47.332;11.180;2023-05-10T07:42:29;9.70;99.90
11284;DHT22;5698;47.332;11.180;2023-05-10T07:44:58;9.70;99.90
11284;DHT22;5698;47.332;11.180;2023-05-10T07:47:25;9.70;99.90
11284;DHT22;5698;47.332;11.180;2023-05-10T07:49:52;9.70;99.90
11284;DHT22;5698;47.332;11.180;2023-05-10T07:52:19;9.60;99.90
11284;DHT22;5698;47.332;11.180;2023-05-10T07:54:45;9.70;99.90
11284;DHT22;5698;47.332;11.180;2023-05-10T07:57:12;9.70;99.90
11284;DHT22;5698;47.332;11.180;2023-05-10T07:59:43;9.70;99.90
11284;DHT22;5698;47.332;11.180;2023-05-10T08:02:11;9.70;99.90
11284;DHT22;5698;47.332;11.180;2023-05-10T08:04:38;9.60;99.90
11284;DHT22;5698;47.332;11.180;2023-05-10T08:07:05;9.60;99.90
11284;DHT22;5698;47.332;11.180;2023-05-10T08:09:32;9.50;99.90
11284;DHT22;5698;47.332;11.180;2023-05-10T08:11:59;9.60;99.90
11284;DHT22;5698;47.332;11.180;2023-05-10T08:14:28;9.60;99.90
11284;DHT22;5698;47.332;11.180;2023-05-10T08:16:55;9.60;99.90
11284;DHT22;5698;47.332;11.180;2023-05-10T08:19:23;9.70;99.90
11284;DHT22;5698;47.332;11.180;2023-05-10T08:21:50;9.70;99.90
11284;DHT22;5698;47.332;11.180;2023-05-10T08:24:17;9.70;99.90
11284;DHT22;5698;47.332;11.180;2023-05-10T08:26:44;9.70;99.90
11284;DHT22;5698;47.332;11.180;2023-05-10T08:29:11;9.60;99.90
11284;DHT22;5698;47.332;11.180;2023-05-10T08:31:38;9.60;99.90
11284;DHT22;5698;47.332;11.180;2023-05-10T08:34:05;9.50;99.90
11284;DHT22;5698;47.332;11.180;2023-05-10T08:36:34;9.60;99.90
11284;DHT22;5698;47.332;11.180;2023-05-10T08:39:01;9.50;99.90
11284;DHT22;5698;47.332;11.180;2023-05-10T08:41:29;9.30;99.90
11284;DHT22;5698;47.332;11.180;2023-05-10T08:44:04;9.30;99.90
11284;DHT22;5698;47.332;11.180;2023-05-10T08:46:33;9.30;99.90
11284;DHT22;5698;47.332;11.180;2023-05-10T08:49:02;9.30;99.90
11284;DHT22;5698;47.332;11.180;2023-05-10T08:51:35;9.40;99.90
11284;DHT22;5698;47.332;11.180;2023-05-10T08:54:03;9.40;99.90
11284;DHT22;5698;47.332;11.180;2023-05-10T08:56:31;9.40;99.90
11284;DHT22;5698;47.332;11.180;2023-05-10T08:58:58;9.40;99.90
11284;DHT22;5698;47.332;11.180;2023-05-10T09:01:25;9.40;99.90
11284;DHT22;5698;47.332;11.180;2023-05-10T09:03:53;9.50;99.90
11284;DHT22;5698;47.332;11.180;2023-05-10T09:06:20;9.60;99.90
11284;DHT22;5698;47.332;11.180;2023-05-10T09:08:49;9.60;99.90
11284;DHT22;5698;47.332;11.180;2023-05-10T09:11:16;9.60;99.90
11284;DHT22;5698;47.332;11.180;2023-05-10T09:13:44;9.70;99.90
11284;DHT22;5698;47.332;11.180;2023-05-10T09:16:11;9.80;99.90
11284;DHT22;5698;47.332;11.180;2023-05-10T09:18:38;9.90;99.90
11284;DHT22;5698;47.332;11.180;2023-05-10T09:21:05;10.00;99.90
11284;DHT22;5698;47.332;11.180;2023-05-10T09:23:32;10.10;99.90
11284;DHT22;5698;47.332;11.180;2023-05-10T09:26:04;10.20;99.90
11284;DHT22;5698;47.332;11.180;2023-05-10T09:28:35;10.20;99.90
11284;DHT22;5698;47.332;11.180;2023-05-10T09:31:16;10.40;99.90
11284;DHT22;5698;47.332;11.180;2023-05-10T09:33:44;10.40;99.90
11284;DHT22;5698;47.332;11.180;2023-05-10T09:36:12;10.40;99.90
11284;DHT22;5698;47.332;11.180;2023-05-10T09:38:46;10.50;99.90
11284;DHT22;5698;47.332;11.180;2023-05-10T09:41:20;10.50;99.90
11284;DHT22;5698;47.332;11.180;2023-05-10T09:43:47;10.50;99.90
11284;DHT22;5698;47.332;11.180;2023-05-10T09:46:14;10.50;99.90
11284;DHT22;5698;47.332;11.180;2023-05-10T09:48:43;10.60;99.90
11284;DHT22;5698;47.332;11.180;2023-05-10T09:51:15;10.60;99.90
11284;DHT22;5698;47.332;11.180;2023-05-10T09:53:45;10.60;99.90
11284;DHT22;5698;47.332;11.180;2023-05-10T09:56:12;10.50;99.90
11284;DHT22;5698;47.332;11.180;2023-05-10T09:58:41;10.40;99.90
11284;DHT22;5698;47.332;11.180;2023-05-10T10:01:11;10.20;99.90
11284;DHT22;5698;47.332;11.180;2023-05-10T10:03:42;10.20;99.90
11284;DHT22;5698;47.332;11.180;2023-05-10T10:06:09;10.20;99.90
11284;DHT22;5698;47.332;11.180;2023-05-10T10:08:36;10.20;99.90
11284;DHT22;5698;47.332;11.180;2023-05-10T10:11:03;10.20;99.90
11284;DHT22;5698;47.332;11.180;2023-05-10T10:13:30;10.20;99.90
11284;DHT22;5698;47.332;11.180;2023-05-10T10:16:00;10.10;99.90
11284;DHT22;5698;47.332;11.180;2023-05-10T10:18:27;10.10;99.90
11284;DHT22;5698;47.332;11.180;2023-05-10T10:20:55;10.00;99.90
11284;DHT22;5698;47.332;11.180;2023-05-10T10:23:22;10.00;99.90
11284;DHT22;5698;47.332;11.180;2023-05-10T10:25:50;10.00;99.90
11284;DHT22;5698;47.332;11.180;2023-05-10T10:28:24;10.10;99.90
11284;DHT22;5698;47.332;11.180;2023-05-10T10:30:55;10.10;99.90
11284;DHT22;5698;47.332;11.180;2023-05-10T10:33:44;10.10;99.90
11284;DHT22;5698;47.332;11.180;2023-05-10T10:36:16;10.10;99.90
11284;DHT22;5698;47.332;11.180;2023-05-10T10:38:59;10.10;99.90
11284;DHT22;5698;47.332;11.180;2023-05-10T10:41:31;10.10;99.90
11284;DHT22;5698;47.332;11.180;2023-05-10T10:44:24;10.10;99.90
11284;DHT22;5698;47.332;11.180;2023-05-10T10:47:02;10.00;99.90
11284;DHT22;5698;47.332;11.180;2023-05-10T10:49:36;10.00;99.90
11284;DHT22;5698;47.332;11.180;2023-05-10T10:52:23;10.00;99.90
11284;DHT22;5698;47.332;11.180;2023-05-10T10:54:58;10.00;99.90
11284;DHT22;5698;47.332;11.180;2023-05-10T10:57:26;10.10;99.90
11284;DHT22;5698;47.332;11.180;2023-05-10T11:00:23;10.20;99.90
11284;DHT22;5698;47.332;11.180;2023-05-10T11:02:51;10.20;99.90
11284;DHT22;5698;47.332;11.180;2023-05-10T11:05:41;10.30;99.90
11284;DHT22;5698;47.332;11.180;2023-05-10T11:08:26;10.40;99.90
11284;DHT22;5698;47.332;11.180;2023-05-10T11:11:03;10.50;99.90
11284;DHT22;5698;47.332;11.180;2023-05-10T11:13:33;10.60;99.90
11284;DHT22;5698;47.332;11.180;2023-05-10T11:16:11;10.60;99.90
11284;DHT22;5698;47.332;11.180;2023-05-10T11:18:38;10.70;99.90
11284;DHT22;5698;47.332;11.180;2023-05-10T11:21:08;10.80;99.90
11284;DHT22;5698;47.332;11.180;2023-05-10T11:23:48;10.80;99.90
11284;DHT22;5698;47.332;11.180;2023-05-10T11:26:15;10.80;99.90
11284;DHT22;5698;47.332;11.180;2023-05-10T11:28:43;10.80;99.90
11284;DHT22;5698;47.332;11.180;2023-05-10T11:31:10;10.90;99.90
11284;DHT22;5698;47.332;11.180;2023-05-10T11:33:42;10.90;99.90
11284;DHT22;5698;47.332;11.180;2023-05-10T11:36:13;10.90;99.90
11284;DHT22;5698;47.332;11.180;2023-05-10T11:38:40;11.00;99.90
11284;DHT22;5698;47.332;11.180;2023-05-10T11:41:08;11.00;99.90
11284;DHT22;5698;47.332;11.180;2023-05-10T11:43:35;11.00;99.90
11284;DHT22;5698;47.332;11.180;2023-05-10T11:46:04;11.10;99.90
11284;DHT22;5698;47.332;11.180;2023-05-10T11:48:32;11.10;99.90
11284;DHT22;5698;47.332;11.180;2023-05-10T11:51:00;11.10;99.90
11284;DHT22;5698;47.332;11.180;2023-05-10T11:53:29;11.10;99.90
11284;DHT22;5698;47.332;11.180;2023-05-10T11:56:03;11.10;99.90
11284;DHT22;5698;47.332;11.180;2023-05-10T11:58:30;11.10;99.90
11284;DHT22;5698;47.332;11.180;2023-05-10T12:00:58;11.10;99.90
11284;DHT22;5698;47.332;11.180;2023-05-10T12:03:25;11.20;99.90
11284;DHT22;5698;47.332;11.180;2023-05-10T12:05:52;11.10;99.90
11284;DHT22;5698;47.332;11.180;2023-05-10T12:08:22;11.00;99.90
11284;DHT22;5698;47.332;11.180;2023-05-10T12:10:50;10.90;99.90
11284;DHT22;5698;47.332;11.180;2023-05-10T12:13:18;10.80;99.90
11284;DHT22;5698;47.332;11.180;2023-05-10T12:15:46;10.80;99.90
11284;DHT22;5698;47.332;11.180;2023-05-10T12:18:14;10.80;99.90
11284;DHT22;5698;47.332;11.180;2023-05-10T12:20:41;10.70;99.90
11284;DHT22;5698;47.332;11.180;2023-05-10T12:23:09;10.60;99.90
11284;DHT22;5698;47.332;11.180;2023-05-10T12:25:37;10.50;99.90
11284;DHT22;5698;47.332;11.180;2023-05-10T12:28:07;10.50;99.90
11284;DHT22;5698;47.332;11.180;2023-05-10T12:30:35;10.30;99.90
11284;DHT22;5698;47.332;11.180;2023-05-10T12:33:09;10.30;99.90
11284;DHT22;5698;47.332;11.180;2023-05-10T12:35:44;10.20;99.90
11284;DHT22;5698;47.332;11.180;2023-05-10T12:38:28;10.20;99.90
11284;DHT22;5698;47.332;11.180;2023-05-10T12:40:57;10.20;99.90
11284;DHT22;5698;47.332;11.180;2023-05-10T12:43:25;10.20;99.90
11284;DHT22;5698;47.332;11.180;2023-05-10T12:45:53;10.20;99.90
11284;DHT22;5698;47.332;11.180;2023-05-10T12:48:20;10.10;99.90
11284;DHT22;5698;47.332;11.180;2023-05-10T12:50:47;10.20;99.90
11284;DHT22;5698;47.332;11.180;2023-05-10T12:53:14;10.10;99.90
11284;DHT22;5698;47.332;11.180;2023-05-10T12:55:42;10.10;99.90
11284;DHT22;5698;47.332;11.180;2023-05-10T12:58:09;10.20;99.90
11284;DHT22;5698;47.332;11.180;2023-05-10T13:00:37;10.20;99.90
11284;DHT22;5698;47.332;11.180;2023-05-10T13:03:04;10.20;99.90
11284;DHT22;5698;47.332;11.180;2023-05-10T13:05:32;10.20;99.90
11284;DHT22;5698;47.332;11.180;2023-05-10T13:07:59;10.10;99.90
11284;DHT22;5698;47.332;11.180;2023-05-10T13:10:26;10.10;99.90
11284;DHT22;5698;47.332;11.180;2023-05-10T13:12:53;10.00;99.90
11284;DHT22;5698;47.332;11.180;2023-05-10T13:15:20;10.00;99.90
11284;DHT22;5698;47.332;11.180;2023-05-10T13:17:48;9.90;99.90
11284;DHT22;5698;47.332;11.180;2023-05-10T13:20:15;10.00;99.90
11284;DHT22;5698;47.332;11.180;2023-05-10T13:22:43;9.90;99.90
11284;DHT22;5698;47.332;11.180;2023-05-10T13:25:10;9.90;99.90
11284;DHT22;5698;47.332;11.180;2023-05-10T13:27:37;9.90;99.90
11284;DHT22;5698;47.332;11.180;2023-05-10T13:30:05;10.00;99.90
11284;DHT22;5698;47.332;11.180;2023-05-10T13:32:32;10.00;99.90
11284;DHT22;5698;47.332;11.180;2023-05-10T13:35:01;10.00;99.90
11284;DHT22;5698;47.332;11.180;2023-05-10T13:37:28;10.00;99.90
11284;DHT22;5698;47.332;11.180;2023-05-10T13:39:56;10.00;99.90
11284;DHT22;5698;47.332;11.180;2023-05-10T13:42:23;10.00;99.90
11284;DHT22;5698;47.332;11.180;2023-05-10T13:44:50;10.00;99.90
11284;DHT22;5698;47.332;11.180;2023-05-10T13:47:17;10.00;99.90
11284;DHT22;5698;47.332;11.180;2023-05-10T13:49:44;10.00;99.90
11284;DHT22;5698;47.332;11.180;2023-05-10T13:52:12;9.90;99.90
11284;DHT22;5698;47.332;11.180;2023-05-10T13:54:39;9.90;99.90
11284;DHT22;5698;47.332;11.180;2023-05-10T13:57:06;9.80;99.90
11284;DHT22;5698;47.332;11.180;2023-05-10T13:59:33;9.70;99.90
11284;DHT22;5698;47.332;11.180;2023-05-10T14:02:00;9.60;99.90
11284;DHT22;5698;47.332;11.180;2023-05-10T14:04:28;9.60;99.90
11284;DHT22;5698;47.332;11.180;2023-05-10T14:06:56;9.60;99.90
11284;DHT22;5698;47.332;11.180;2023-05-10T14:09:24;9.60;99.90
11284;DHT22;5698;47.332;11.180;2023-05-10T14:11:51;9.50;99.90
11284;DHT22;5698;47.332;11.180;2023-05-10T14:14:18;9.50;99.90
11284;DHT22;5698;47.332;11.180;2023-05-10T14:16:45;9.40;99.90
11284;DHT22;5698;47.332;11.180;2023-05-10T14:19:12;9.40;99.90
11284;DHT22;5698;47.332;11.180;2023-05-10T14:21:39;9.30;99.90
11284;DHT22;5698;47.332;11.180;2023-05-10T14:24:06;9.30;99.90
11284;DHT22;5698;47.332;11.180;2023-05-10T14:26:35;9.30;99.90
11284;DHT22;5698;47.332;11.180;2023-05-10T14:29:02;9.30;99.90
11284;DHT22;5698;47.332;11.180;2023-05-10T14:31:29;9.30;99.90
11284;DHT22;5698;47.332;11.180;2023-05-10T14:33:56;9.30;99.90
11284;DHT22;5698;47.332;11.180;2023-05-10T14:36:24;9.20;99.90
11284;DHT22;5698;47.332;11.180;2023-05-10T14:38:51;9.20;99.90
11284;DHT22;5698;47.332;11.180;2023-05-10T14:41:18;9.10;99.90
11284;DHT22;5698;47.332;11.180;2023-05-10T14:43:46;8.70;99.90
11284;DHT22;5698;47.332;11.180;2023-05-10T14:46:13;8.20;99.90
11284;DHT22;5698;47.332;11.180;2023-05-10T14:48:41;8.10;99.90
11284;DHT22;5698;47.332;11.180;2023-05-10T14:51:08;8.10;99.90
11284;DHT22;5698;47.332;11.180;2023-05-10T14:53:35;8.20;99.90
11284;DHT22;5698;47.332;11.180;2023-05-10T14:56:02;8.30;99.90
11284;DHT22;5698;47.332;11.180;2023-05-10T14:58:29;8.40;99.90
11284;DHT22;5698;47.332;11.180;2023-05-10T15:00:58;8.50;99.90
11284;DHT22;5698;47.332;11.180;2023-05-10T15:03:25;8.50;99.90
11284;DHT22;5698;47.332;11.180;2023-05-10T15:05:52;8.40;99.90
11284;DHT22;5698;47.332;11.180;2023-05-10T15:08:19;8.30;99.90
11284;DHT22;5698;47.332;11.180;2023-05-10T15:10:46;8.40;99.90
11284;DHT22;5698;47.332;11.180;2023-05-10T15:13:14;8.50;99.90
11284;DHT22;5698;47.332;11.180;2023-05-10T15:15:41;8.50;99.90
11284;DHT22;5698;47.332;11.180;2023-05-10T15:18:09;8.60;99.90
11284;DHT22;5698;47.332;11.180;2023-05-10T15:20:36;8.70;99.90
11284;DHT22;5698;47.332;11.180;2023-05-10T15:23:03;8.70;99.90
11284;DHT22;5698;47.332;11.180;2023-05-10T15:25:30;8.70;99.90
11284;DHT22;5698;47.332;11.180;2023-05-10T15:28:00;8.70;99.90
11284;DHT22;5698;47.332;11.180;2023-05-10T15:30:27;8.70;99.90
11284;DHT22;5698;47.332;11.180;2023-05-10T15:32:54;8.60;99.90
11284;DHT22;5698;47.332;11.180;2023-05-10T15:35:22;8.70;99.90
11284;DHT22;5698;47.332;11.180;2023-05-10T15:37:49;8.60;99.90
11284;DHT22;5698;47.332;11.180;2023-05-10T15:40:16;8.50;99.90
11284;DHT22;5698;47.332;11.180;2023-05-10T15:42:43;8.50;99.90
11284;DHT22;5698;47.332;11.180;2023-05-10T15:45:11;8.50;99.90
11284;DHT22;5698;47.332;11.180;2023-05-10T15:47:38;8.50;99.90
11284;DHT22;5698;47.332;11.180;2023-05-10T15:50:06;8.50;99.90
11284;DHT22;5698;47.332;11.180;2023-05-10T15:52:35;8.50;99.90
11284;DHT22;5698;47.332;11.180;2023-05-10T15:55:02;8.50;99.90